sensor_id;sensor_type;location;lat;lon;timestamp;temperature;humidity
69206;SHT30;56319;48.920;2.332;2023-07-08T00:01:22;28.16;42.00
69206;SHT30;56319;48.920;2.332;2023-07-08T00:03:48;28.11;42.09
69206;SHT30;56319;48.920;2.332;2023-07-08T00:06:20;28.09;42.08
69206;SHT30;56319;48.920;2.332;2023-07-08T00:08:46;28.13;42.09
69206;SHT30;56319;48.920;2.332;2023-07-08T00:11:13;28.13;42.13
69206;SHT30;56319;48.920;2.332;2023-07-08T00:13:38;28.11;42.12
69206;SHT30;56319;48.920;2.332;2023-07-08T00:16:04;28.10;42.20
69206;SHT30;56319;48.920;2.332;2023-07-08T00:18:30;28.11;42.26
69206;SHT30;56319;48.920;2.332;2023-07-08T00:20:55;28.10;42.23
69206;SHT30;56319;48.920;2.332;2023-07-08T00:23:21;28.07;42.28
69206;SHT30;56319;48.920;2.332;2023-07-08T00:25:47;28.09;42.32
69206;SHT30;56319;48.920;2.332;2023-07-08T00:28:18;28.09;42.30
69206;SHT30;56319;48.920;2.332;2023-07-08T00:30:44;28.11;42.32
69206;SHT30;56319;48.920;2.332;2023-07-08T00:33:10;28.10;42.36
69206;SHT30;56319;48.920;2.332;2023-07-08T00:35:43;28.06;42.42
69206;SHT30;56319;48.920;2.332;2023-07-08T00:38:23;28.04;42.43
69206;SHT30;56319;48.920;2.332;2023-07-08T00:41:10;28.06;42.46
69206;SHT30;56319;48.920;2.332;2023-07-08T00:43:39;28.06;42.40
69206;SHT30;56319;48.920;2.332;2023-07-08T00:52:28;28.04;42.57
69206;SHT30;56319;48.920;2.332;2023-07-08T00:54:58;28.06;42.58
69206;SHT30;56319;48.920;2.332;2023-07-08T00:57:27;28.04;42.52
69206;SHT30;56319;48.920;2.332;2023-07-08T01:00:02;28.04;42.58
69206;SHT30;56319;48.920;2.332;2023-07-08T01:02:32;28.03;42.64
69206;SHT30;56319;48.920;2.332;2023-07-08T01:05:06;28.04;42.67
69206;SHT30;56319;48.920;2.332;2023-07-08T01:07:33;28.06;42.68
69206;SHT30;56319;48.920;2.332;2023-07-08T01:10:04;28.02;42.66
69206;SHT30;56319;48.920;2.332;2023-07-08T01:12:35;28.02;42.73
69206;SHT30;56319;48.920;2.332;2023-07-08T01:15:03;28.00;42.71
69206;SHT30;56319;48.920;2.332;2023-07-08T01:17:29;28.00;42.77
69206;SHT30;56319;48.920;2.332;2023-07-08T01:20:00;28.02;42.77
69206;SHT30;56319;48.920;2.332;2023-07-08T01:22:29;28.02;42.78
69206;SHT30;56319;48.920;2.332;2023-07-08T01:24:58;27.99;42.81
69206;SHT30;56319;48.920;2.332;2023-07-08T01:27:31;28.02;42.79
69206;SHT30;56319;48.920;2.332;2023-07-08T01:29:59;28.02;42.87
69206;SHT30;56319;48.920;2.332;2023-07-08T01:32:25;27.99;42.86
69206;SHT30;56319;48.920;2.332;2023-07-08T01:34:52;27.99;42.90
69206;SHT30;56319;48.920;2.332;2023-07-08T01:37:31;28.00;42.96
69206;SHT30;56319;48.920;2.332;2023-07-08T01:39:58;27.97;42.95
69206;SHT30;56319;48.920;2.332;2023-07-08T01:42:38;27.99;43.03
69206;SHT30;56319;48.920;2.332;2023-07-08T01:45:10;27.97;43.03
69206;SHT30;56319;48.920;2.332;2023-07-08T01:47:36;27.97;43.00
69206;SHT30;56319;48.920;2.332;2023-07-08T01:50:02;27.99;43.06
69206;SHT30;56319;48.920;2.332;2023-07-08T01:52:28;27.94;43.05
69206;SHT30;56319;48.920;2.332;2023-07-08T01:54:55;27.96;43.08
69206;SHT30;56319;48.920;2.332;2023-07-08T01:57:20;27.97;43.13
69206;SHT30;56319;48.920;2.332;2023-07-08T01:59:46;27.94;43.15
69206;SHT30;56319;48.920;2.332;2023-07-08T02:02:13;27.96;43.17
69206;SHT30;56319;48.920;2.332;2023-07-08T02:04:39;27.99;43.19
69206;SHT30;56319;48.920;2.332;2023-07-08T02:07:04;27.99;43.21
69206;SHT30;56319;48.920;2.332;2023-07-08T02:09:30;27.96;43.20
69206;SHT30;56319;48.920;2.332;2023-07-08T02:11:56;27.96;43.13
69206;SHT30;56319;48.920;2.332;2023-07-08T02:14:22;27.96;43.23
69206;SHT30;56319;48.920;2.332;2023-07-08T02:16:48;27.94;43.15
69206;SHT30;56319;48.920;2.332;2023-07-08T02:19:14;27.96;43.26
69206;SHT30;56319;48.920;2.332;2023-07-08T02:21:39;27.93;43.19
69206;SHT30;56319;48.920;2.332;2023-07-08T02:24:06;27.94;43.19
69206;SHT30;56319;48.920;2.332;2023-07-08T02:26:31;27.94;43.22
69206;SHT30;56319;48.920;2.332;2023-07-08T02:28:58;27.94;43.16
69206;SHT30;56319;48.920;2.332;2023-07-08T02:31:24;27.93;43.21
69206;SHT30;56319;48.920;2.332;2023-07-08T02:33:50;27.92;43.14
69206;SHT30;56319;48.920;2.332;2023-07-08T02:36:16;27.92;43.24
69206;SHT30;56319;48.920;2.332;2023-07-08T02:38:42;27.92;43.17
69206;SHT30;56319;48.920;2.332;2023-07-08T02:41:07;27.92;43.19
69206;SHT30;56319;48.920;2.332;2023-07-08T02:43:33;27.90;43.22
69206;SHT30;56319;48.920;2.332;2023-07-08T02:45:58;27.89;43.21
69206;SHT30;56319;48.920;2.332;2023-07-08T02:48:24;27.92;43.22
69206;SHT30;56319;48.920;2.332;2023-07-08T02:50:49;27.90;43.26
69206;SHT30;56319;48.920;2.332;2023-07-08T02:53:14;27.89;43.28
69206;SHT30;56319;48.920;2.332;2023-07-08T02:55:40;27.90;43.35
69206;SHT30;56319;48.920;2.332;2023-07-08T02:58:08;27.92;43.33
69206;SHT30;56319;48.920;2.332;2023-07-08T03:00:34;27.92;43.35
69206;SHT30;56319;48.920;2.332;2023-07-08T03:03:03;27.90;43.35
69206;SHT30;56319;48.920;2.332;2023-07-08T03:05:29;27.92;43.38
69206;SHT30;56319;48.920;2.332;2023-07-08T03:07:55;27.88;43.35
69206;SHT30;56319;48.920;2.332;2023-07-08T03:10:21;27.89;43.44
69206;SHT30;56319;48.920;2.332;2023-07-08T03:12:46;27.88;43.48
69206;SHT30;56319;48.920;2.332;2023-07-08T03:15:12;27.89;43.47
69206;SHT30;56319;48.920;2.332;2023-07-08T03:17:37;27.88;43.53
69206;SHT30;56319;48.920;2.332;2023-07-08T03:20:03;27.88;43.47
69206;SHT30;56319;48.920;2.332;2023-07-08T03:22:31;27.86;43.54
69206;SHT30;56319;48.920;2.332;2023-07-08T03:24:56;27.88;43.63
69206;SHT30;56319;48.920;2.332;2023-07-08T03:27:22;27.88;43.65
69206;SHT30;56319;48.920;2.332;2023-07-08T03:29:47;27.88;43.63
69206;SHT30;56319;48.920;2.332;2023-07-08T03:32:13;27.89;43.62
69206;SHT30;56319;48.920;2.332;2023-07-08T03:34:38;27.89;43.69
69206;SHT30;56319;48.920;2.332;2023-07-08T03:37:04;27.86;43.67
69206;SHT30;56319;48.920;2.332;2023-07-08T03:39:31;27.86;43.64
69206;SHT30;56319;48.920;2.332;2023-07-08T03:41:57;27.85;43.72
69206;SHT30;56319;48.920;2.332;2023-07-08T03:44:23;27.85;43.68
69206;SHT30;56319;48.920;2.332;2023-07-08T03:46:49;27.83;43.74
69206;SHT30;56319;48.920;2.332;2023-07-08T03:49:16;27.86;43.68
69206;SHT30;56319;48.920;2.332;2023-07-08T03:51:44;27.88;43.74
69206;SHT30;56319;48.920;2.332;2023-07-08T03:54:12;27.85;43.77
69206;SHT30;56319;48.920;2.332;2023-07-08T03:56:38;27.83;43.75
69206;SHT30;56319;48.920;2.332;2023-07-08T03:59:04;27.86;43.75
69206;SHT30;56319;48.920;2.332;2023-07-08T04:01:30;27.82;43.78
69206;SHT30;56319;48.920;2.332;2023-07-08T04:03:57;27.82;43.74
69206;SHT30;56319;48.920;2.332;2023-07-08T04:06:23;27.83;43.77
69206;SHT30;56319;48.920;2.332;2023-07-08T04:08:49;27.83;43.82
69206;SHT30;56319;48.920;2.332;2023-07-08T04:11:18;27.83;43.81
69206;SHT30;56319;48.920;2.332;2023-07-08T04:13:44;27.83;43.83
69206;SHT30;56319;48.920;2.332;2023-07-08T04:19:02;27.83;43.86
69206;SHT30;56319;48.920;2.332;2023-07-08T04:21:27;27.81;43.81
69206;SHT30;56319;48.920;2.332;2023-07-08T04:23:55;27.82;43.84
69206;SHT30;56319;48.920;2.332;2023-07-08T04:26:20;27.82;43.86
69206;SHT30;56319;48.920;2.332;2023-07-08T04:28:46;27.82;43.86
69206;SHT30;56319;48.920;2.332;2023-07-08T04:31:11;27.82;43.84
69206;SHT30;56319;48.920;2.332;2023-07-08T04:33:37;27.81;43.85
69206;SHT30;56319;48.920;2.332;2023-07-08T04:36:03;27.79;43.89
69206;SHT30;56319;48.920;2.332;2023-07-08T04:38:28;27.79;43.93
69206;SHT30;56319;48.920;2.332;2023-07-08T04:40:54;27.81;43.86
69206;SHT30;56319;48.920;2.332;2023-07-08T04:43:21;27.78;43.96
69206;SHT30;56319;48.920;2.332;2023-07-08T04:45:50;27.79;43.86
69206;SHT30;56319;48.920;2.332;2023-07-08T04:48:17;27.79;43.93
69206;SHT30;56319;48.920;2.332;2023-07-08T04:50:46;27.79;43.92
69206;SHT30;56319;48.920;2.332;2023-07-08T04:53:12;27.78;43.97
69206;SHT30;56319;48.920;2.332;2023-07-08T04:55:41;27.79;43.94
69206;SHT30;56319;48.920;2.332;2023-07-08T04:58:08;27.78;43.93
69206;SHT30;56319;48.920;2.332;2023-07-08T05:00:33;27.78;43.95
69206;SHT30;56319;48.920;2.332;2023-07-08T05:02:59;27.75;43.92
69206;SHT30;56319;48.920;2.332;2023-07-08T05:05:25;27.78;43.92
69206;SHT30;56319;48.920;2.332;2023-07-08T05:07:50;27.78;43.95
69206;SHT30;56319;48.920;2.332;2023-07-08T05:10:17;27.78;43.92
69206;SHT30;56319;48.920;2.332;2023-07-08T05:12:43;27.78;44.02
69206;SHT30;56319;48.920;2.332;2023-07-08T05:15:09;27.81;43.99
69206;SHT30;56319;48.920;2.332;2023-07-08T05:17:37;27.79;43.99
69206;SHT30;56319;48.920;2.332;2023-07-08T05:20:04;27.75;43.90
69206;SHT30;56319;48.920;2.332;2023-07-08T05:22:29;27.78;43.95
69206;SHT30;56319;48.920;2.332;2023-07-08T05:24:55;27.75;43.92
69206;SHT30;56319;48.920;2.332;2023-07-08T05:27:22;27.78;43.99
69206;SHT30;56319;48.920;2.332;2023-07-08T05:29:48;27.75;44.05
69206;SHT30;56319;48.920;2.332;2023-07-08T05:32:14;27.75;43.98
69206;SHT30;56319;48.920;2.332;2023-07-08T05:34:39;27.75;43.97
69206;SHT30;56319;48.920;2.332;2023-07-08T05:37:05;27.78;43.98
69206;SHT30;56319;48.920;2.332;2023-07-08T05:39:31;27.81;43.98
69206;SHT30;56319;48.920;2.332;2023-07-08T05:41:57;27.75;44.00
69206;SHT30;56319;48.920;2.332;2023-07-08T05:44:22;27.76;44.02
69206;SHT30;56319;48.920;2.332;2023-07-08T05:46:49;27.76;44.01
69206;SHT30;56319;48.920;2.332;2023-07-08T05:49:15;27.75;44.05
69206;SHT30;56319;48.920;2.332;2023-07-08T05:51:41;27.75;44.03
69206;SHT30;56319;48.920;2.332;2023-07-08T05:54:06;27.75;44.01
69206;SHT30;56319;48.920;2.332;2023-07-08T05:56:32;27.75;44.01
69206;SHT30;56319;48.920;2.332;2023-07-08T05:58:57;27.73;44.04
69206;SHT30;56319;48.920;2.332;2023-07-08T06:01:23;27.75;44.10
69206;SHT30;56319;48.920;2.332;2023-07-08T06:03:48;27.78;44.08
69206;SHT30;56319;48.920;2.332;2023-07-08T06:06:15;27.75;44.02
69206;SHT30;56319;48.920;2.332;2023-07-08T06:08:41;27.76;44.08
69206;SHT30;56319;48.920;2.332;2023-07-08T06:11:06;27.73;44.03
69206;SHT30;56319;48.920;2.332;2023-07-08T06:13:32;27.75;44.05
69206;SHT30;56319;48.920;2.332;2023-07-08T06:15:57;27.73;44.07
69206;SHT30;56319;48.920;2.332;2023-07-08T06:18:23;27.76;44.09
69206;SHT30;56319;48.920;2.332;2023-07-08T06:20:56;27.78;44.11
69206;SHT30;56319;48.920;2.332;2023-07-08T06:23:22;27.76;44.06
69206;SHT30;56319;48.920;2.332;2023-07-08T06:25:48;27.75;44.09
69206;SHT30;56319;48.920;2.332;2023-07-08T06:28:14;27.73;44.11
69206;SHT30;56319;48.920;2.332;2023-07-08T06:30:39;27.75;44.08
69206;SHT30;56319;48.920;2.332;2023-07-08T06:33:05;27.78;44.14
69206;SHT30;56319;48.920;2.332;2023-07-08T06:35:31;27.75;44.12
69206;SHT30;56319;48.920;2.332;2023-07-08T06:37:56;27.78;44.14
69206;SHT30;56319;48.920;2.332;2023-07-08T06:40:22;27.78;44.16
69206;SHT30;56319;48.920;2.332;2023-07-08T06:42:48;27.76;44.16
69206;SHT30;56319;48.920;2.332;2023-07-08T06:45:13;27.76;44.12
69206;SHT30;56319;48.920;2.332;2023-07-08T06:47:39;27.78;44.16
69206;SHT30;56319;48.920;2.332;2023-07-08T06:50:05;27.76;44.12
69206;SHT30;56319;48.920;2.332;2023-07-08T06:52:32;27.76;44.20
69206;SHT30;56319;48.920;2.332;2023-07-08T06:55:02;27.78;44.21
69206;SHT30;56319;48.920;2.332;2023-07-08T06:57:28;27.75;44.24
69206;SHT30;56319;48.920;2.332;2023-07-08T06:59:53;27.76;44.22
69206;SHT30;56319;48.920;2.332;2023-07-08T07:02:19;27.78;44.22
69206;SHT30;56319;48.920;2.332;2023-07-08T07:04:45;27.79;44.19
69206;SHT30;56319;48.920;2.332;2023-07-08T07:07:11;27.79;44.21
69206;SHT30;56319;48.920;2.332;2023-07-08T07:09:37;27.79;44.25
69206;SHT30;56319;48.920;2.332;2023-07-08T07:12:05;27.78;44.28
69206;SHT30;56319;48.920;2.332;2023-07-08T07:14:32;27.79;44.29
69206;SHT30;56319;48.920;2.332;2023-07-08T07:16:57;27.79;44.30
69206;SHT30;56319;48.920;2.332;2023-07-08T07:19:23;27.79;44.37
69206;SHT30;56319;48.920;2.332;2023-07-08T07:21:48;27.79;44.37
69206;SHT30;56319;48.920;2.332;2023-07-08T07:24:14;27.81;44.41
69206;SHT30;56319;48.920;2.332;2023-07-08T07:26:39;27.81;44.40
69206;SHT30;56319;48.920;2.332;2023-07-08T07:29:05;27.82;44.45
69206;SHT30;56319;48.920;2.332;2023-07-08T07:31:30;27.82;44.45
69206;SHT30;56319;48.920;2.332;2023-07-08T07:33:59;27.82;44.42
69206;SHT30;56319;48.920;2.332;2023-07-08T07:36:24;27.82;44.48
69206;SHT30;56319;48.920;2.332;2023-07-08T07:38:50;27.85;44.41
69206;SHT30;56319;48.920;2.332;2023-07-08T07:41:16;27.82;44.46
69206;SHT30;56319;48.920;2.332;2023-07-08T07:43:41;27.85;44.47
69206;SHT30;56319;48.920;2.332;2023-07-08T07:46:07;27.83;44.44
69206;SHT30;56319;48.920;2.332;2023-07-08T07:48:33;27.82;44.44
69206;SHT30;56319;48.920;2.332;2023-07-08T07:50:59;27.85;44.47
69206;SHT30;56319;48.920;2.332;2023-07-08T07:53:25;27.86;44.45
69206;SHT30;56319;48.920;2.332;2023-07-08T07:55:56;27.86;44.44
69206;SHT30;56319;48.920;2.332;2023-07-08T07:58:22;27.85;44.40
69206;SHT30;56319;48.920;2.332;2023-07-08T08:00:47;27.86;44.44
69206;SHT30;56319;48.920;2.332;2023-07-08T08:03:13;27.88;44.43
69206;SHT30;56319;48.920;2.332;2023-07-08T08:05:42;27.89;44.43
69206;SHT30;56319;48.920;2.332;2023-07-08T08:08:07;27.88;44.45
69206;SHT30;56319;48.920;2.332;2023-07-08T08:10:34;27.89;44.45
69206;SHT30;56319;48.920;2.332;2023-07-08T08:13:00;27.89;44.45
69206;SHT30;56319;48.920;2.332;2023-07-08T08:15:26;27.90;44.40
69206;SHT30;56319;48.920;2.332;2023-07-08T08:17:51;27.92;44.46
69206;SHT30;56319;48.920;2.332;2023-07-08T08:20:18;27.93;44.45
69206;SHT30;56319;48.920;2.332;2023-07-08T08:22:45;27.92;44.41
69206;SHT30;56319;48.920;2.332;2023-07-08T08:25:10;27.94;44.46
69206;SHT30;56319;48.920;2.332;2023-07-08T08:27:36;27.96;44.37
69206;SHT30;56319;48.920;2.332;2023-07-08T08:30:02;27.96;44.39
69206;SHT30;56319;48.920;2.332;2023-07-08T08:32:27;27.96;44.39
69206;SHT30;56319;48.920;2.332;2023-07-08T08:34:53;27.96;44.43
69206;SHT30;56319;48.920;2.332;2023-07-08T08:37:18;27.96;44.34
69206;SHT30;56319;48.920;2.332;2023-07-08T08:39:44;27.99;44.42
69206;SHT30;56319;48.920;2.332;2023-07-08T08:42:32;28.00;44.42
69206;SHT30;56319;48.920;2.332;2023-07-08T08:45:00;27.99;44.41
69206;SHT30;56319;48.920;2.332;2023-07-08T08:47:37;28.03;44.40
69206;SHT30;56319;48.920;2.332;2023-07-08T08:50:23;28.00;44.37
69206;SHT30;56319;48.920;2.332;2023-07-08T08:52:51;28.02;44.41
69206;SHT30;56319;48.920;2.332;2023-07-08T08:55:17;28.03;44.42
69206;SHT30;56319;48.920;2.332;2023-07-08T08:57:49;28.00;44.39
69206;SHT30;56319;48.920;2.332;2023-07-08T09:00:24;28.03;44.45
69206;SHT30;56319;48.920;2.332;2023-07-08T09:03:01;28.06;44.37
69206;SHT30;56319;48.920;2.332;2023-07-08T09:05:27;28.06;44.39
69206;SHT30;56319;48.920;2.332;2023-07-08T09:08:16;28.07;44.44
69206;SHT30;56319;48.920;2.332;2023-07-08T09:11:09;28.07;44.45
69206;SHT30;56319;48.920;2.332;2023-07-08T09:13:37;28.10;44.46
69206;SHT30;56319;48.920;2.332;2023-07-08T09:16:07;28.11;44.41
69206;SHT30;56319;48.920;2.332;2023-07-08T09:18:55;28.11;44.47
69206;SHT30;56319;48.920;2.332;2023-07-08T09:21:29;28.11;44.38
69206;SHT30;56319;48.920;2.332;2023-07-08T09:24:01;28.13;44.41
69206;SHT30;56319;48.920;2.332;2023-07-08T09:26:30;28.11;44.43
69206;SHT30;56319;48.920;2.332;2023-07-08T09:28:55;28.14;44.45
69206;SHT30;56319;48.920;2.332;2023-07-08T09:31:24;28.14;44.46
69206;SHT30;56319;48.920;2.332;2023-07-08T09:34:04;28.17;44.47
69206;SHT30;56319;48.920;2.332;2023-07-08T09:36:32;28.17;44.44
69206;SHT30;56319;48.920;2.332;2023-07-08T09:39:00;28.17;44.49
69206;SHT30;56319;48.920;2.332;2023-07-08T09:41:31;28.20;44.49
69206;SHT30;56319;48.920;2.332;2023-07-08T09:44:05;28.20;44.55
69206;SHT30;56319;48.920;2.332;2023-07-08T09:46:36;28.21;44.53
69206;SHT30;56319;48.920;2.332;2023-07-08T09:49:28;28.21;44.60
69206;SHT30;56319;48.920;2.332;2023-07-08T09:51:56;28.21;44.55
69206;SHT30;56319;48.920;2.332;2023-07-08T09:54:23;28.22;44.59
69206;SHT30;56319;48.920;2.332;2023-07-08T09:57:11;28.22;44.60
69206;SHT30;56319;48.920;2.332;2023-07-08T09:59:43;28.24;44.61
69206;SHT30;56319;48.920;2.332;2023-07-08T10:02:27;28.24;44.64
69206;SHT30;56319;48.920;2.332;2023-07-08T10:04:56;28.25;44.68
69206;SHT30;56319;48.920;2.332;2023-07-08T10:07:22;28.24;44.63
69206;SHT30;56319;48.920;2.332;2023-07-08T10:09:52;28.25;44.66
69206;SHT30;56319;48.920;2.332;2023-07-08T10:12:22;28.25;44.72
69206;SHT30;56319;48.920;2.332;2023-07-08T10:14:52;28.27;44.72
69206;SHT30;56319;48.920;2.332;2023-07-08T10:17:20;28.27;44.69
69206;SHT30;56319;48.920;2.332;2023-07-08T10:19:47;28.27;44.69
69206;SHT30;56319;48.920;2.332;2023-07-08T10:22:38;28.28;44.72
69206;SHT30;56319;48.920;2.332;2023-07-08T10:25:16;28.31;44.77
69206;SHT30;56319;48.920;2.332;2023-07-08T10:27:51;28.30;44.75
69206;SHT30;56319;48.920;2.332;2023-07-08T10:30:25;28.31;44.76
69206;SHT30;56319;48.920;2.332;2023-07-08T10:36:30;28.34;44.82
69206;SHT30;56319;48.920;2.332;2023-07-08T10:42:13;28.34;44.88
69206;SHT30;56319;48.920;2.332;2023-07-08T10:45:09;28.33;44.85
69206;SHT30;56319;48.920;2.332;2023-07-08T10:47:51;28.36;44.83
69206;SHT30;56319;48.920;2.332;2023-07-08T10:50:45;28.36;44.87
69206;SHT30;56319;48.920;2.332;2023-07-08T10:53:47;28.34;44.91
69206;SHT30;56319;48.920;2.332;2023-07-08T10:56:37;28.36;44.88
69206;SHT30;56319;48.920;2.332;2023-07-08T10:59:26;28.36;44.91
69206;SHT30;56319;48.920;2.332;2023-07-08T11:02:09;28.37;44.93
69206;SHT30;56319;48.920;2.332;2023-07-08T11:04:51;28.37;44.94
69206;SHT30;56319;48.920;2.332;2023-07-08T11:07:30;28.40;44.95
69206;SHT30;56319;48.920;2.332;2023-07-08T11:10:02;28.40;44.90
69206;SHT30;56319;48.920;2.332;2023-07-08T11:12:51;28.41;44.96
69206;SHT30;56319;48.920;2.332;2023-07-08T11:15:25;28.44;44.99
69206;SHT30;56319;48.920;2.332;2023-07-08T11:17:58;28.44;44.92
69206;SHT30;56319;48.920;2.332;2023-07-08T11:23:44;28.44;44.91
69206;SHT30;56319;48.920;2.332;2023-07-08T11:26:26;28.49;44.94
69206;SHT30;56319;48.920;2.332;2023-07-08T11:28:54;28.51;44.91
69206;SHT30;56319;48.920;2.332;2023-07-08T11:31:22;28.51;44.90
69206;SHT30;56319;48.920;2.332;2023-07-08T11:33:49;28.54;44.91
69206;SHT30;56319;48.920;2.332;2023-07-08T11:36:15;28.54;44.88
69206;SHT30;56319;48.920;2.332;2023-07-08T11:38:52;28.55;44.85
69206;SHT30;56319;48.920;2.332;2023-07-08T11:41:21;28.59;44.82
69206;SHT30;56319;48.920;2.332;2023-07-08T11:43:50;28.61;44.84
69206;SHT30;56319;48.920;2.332;2023-07-08T11:46:21;28.64;44.75
69206;SHT30;56319;48.920;2.332;2023-07-08T11:48:52;28.66;44.79
69206;SHT30;56319;48.920;2.332;2023-07-08T11:51:24;28.68;44.74
69206;SHT30;56319;48.920;2.332;2023-07-08T11:54:02;28.71;44.74
69206;SHT30;56319;48.920;2.332;2023-07-08T11:56:50;28.73;44.66
69206;SHT30;56319;48.920;2.332;2023-07-08T11:59:24;28.76;44.64
69206;SHT30;56319;48.920;2.332;2023-07-08T12:01:54;28.79;44.56
69206;SHT30;56319;48.920;2.332;2023-07-08T12:04:29;28.83;44.54
69206;SHT30;56319;48.920;2.332;2023-07-08T12:07:12;28.86;44.52
69206;SHT30;56319;48.920;2.332;2023-07-08T12:09:46;28.90;44.45
69206;SHT30;56319;48.920;2.332;2023-07-08T12:12:21;28.90;44.40
69206;SHT30;56319;48.920;2.332;2023-07-08T12:14:48;28.96;44.36
69206;SHT30;56319;48.920;2.332;2023-07-08T12:17:15;29.00;44.35
69206;SHT30;56319;48.920;2.332;2023-07-08T12:19:43;29.04;44.30
69206;SHT30;56319;48.920;2.332;2023-07-08T12:22:10;29.07;44.26
69206;SHT30;56319;48.920;2.332;2023-07-08T12:24:38;29.10;44.22
69206;SHT30;56319;48.920;2.332;2023-07-08T12:27:04;29.11;44.20
69206;SHT30;56319;48.920;2.332;2023-07-08T12:29:31;29.16;44.13
69206;SHT30;56319;48.920;2.332;2023-07-08T12:31:58;29.18;44.07
69206;SHT30;56319;48.920;2.332;2023-07-08T12:34:25;29.21;44.02
69206;SHT30;56319;48.920;2.332;2023-07-08T12:36:51;29.23;43.98
69206;SHT30;56319;48.920;2.332;2023-07-08T12:39:18;29.30;43.97
69206;SHT30;56319;48.920;2.332;2023-07-08T12:41:45;29.31;43.95
69206;SHT30;56319;48.920;2.332;2023-07-08T12:44:16;29.34;43.88
69206;SHT30;56319;48.920;2.332;2023-07-08T12:46:44;29.38;43.88
69206;SHT30;56319;48.920;2.332;2023-07-08T12:49:10;29.39;43.83
69206;SHT30;56319;48.920;2.332;2023-07-08T12:51:36;29.41;43.76
69206;SHT30;56319;48.920;2.332;2023-07-08T12:54:01;29.48;43.72
69206;SHT30;56319;48.920;2.332;2023-07-08T12:56:27;29.52;43.67
69206;SHT30;56319;48.920;2.332;2023-07-08T12:58:55;29.54;43.61
69206;SHT30;56319;48.920;2.332;2023-07-08T13:01:26;29.57;43.54
69206;SHT30;56319;48.920;2.332;2023-07-08T13:03:56;29.63;43.52
69206;SHT30;56319;48.920;2.332;2023-07-08T13:06:30;29.66;43.43
69206;SHT30;56319;48.920;2.332;2023-07-08T13:09:06;29.72;43.38
69206;SHT30;56319;48.920;2.332;2023-07-08T13:11:34;29.72;43.38
69206;SHT30;56319;48.920;2.332;2023-07-08T13:14:04;29.76;43.27
69206;SHT30;56319;48.920;2.332;2023-07-08T13:16:33;29.79;43.26
69206;SHT30;56319;48.920;2.332;2023-07-08T13:19:00;29.80;43.18
69206;SHT30;56319;48.920;2.332;2023-07-08T13:21:26;29.79;43.11
69206;SHT30;56319;48.920;2.332;2023-07-08T13:23:54;29.80;43.09
69206;SHT30;56319;48.920;2.332;2023-07-08T13:26:23;29.83;43.12
69206;SHT30;56319;48.920;2.332;2023-07-08T13:28:49;29.82;43.14
69206;SHT30;56319;48.920;2.332;2023-07-08T13:31:18;29.85;43.07
69206;SHT30;56319;48.920;2.332;2023-07-08T13:33:48;29.88;43.05
69206;SHT30;56319;48.920;2.332;2023-07-08T13:36:17;29.86;42.98
69206;SHT30;56319;48.920;2.332;2023-07-08T13:38:44;29.90;42.97
69206;SHT30;56319;48.920;2.332;2023-07-08T13:41:10;29.93;42.90
69206;SHT30;56319;48.920;2.332;2023-07-08T13:43:39;29.95;42.84
69206;SHT30;56319;48.920;2.332;2023-07-08T13:46:24;29.97;42.82
69206;SHT30;56319;48.920;2.332;2023-07-08T13:48:51;29.99;42.80
69206;SHT30;56319;48.920;2.332;2023-07-08T13:51:19;29.96;42.74
69206;SHT30;56319;48.920;2.332;2023-07-08T13:53:50;29.97;42.81
69206;SHT30;56319;48.920;2.332;2023-07-08T13:56:22;29.97;42.72
69206;SHT30;56319;48.920;2.332;2023-07-08T13:58:51;29.99;42.70
69206;SHT30;56319;48.920;2.332;2023-07-08T14:01:21;30.00;42.69
69206;SHT30;56319;48.920;2.332;2023-07-08T14:03:48;30.00;42.68
69206;SHT30;56319;48.920;2.332;2023-07-08T14:06:21;30.00;42.66
69206;SHT30;56319;48.920;2.332;2023-07-08T14:08:47;29.99;42.61
69206;SHT30;56319;48.920;2.332;2023-07-08T14:11:13;30.00;42.62
69206;SHT30;56319;48.920;2.332;2023-07-08T14:13:38;29.97;42.65
69206;SHT30;56319;48.920;2.332;2023-07-08T14:16:16;29.99;42.63
69206;SHT30;56319;48.920;2.332;2023-07-08T14:18:45;29.95;42.61
69206;SHT30;56319;48.920;2.332;2023-07-08T14:21:11;29.95;42.69
69206;SHT30;56319;48.920;2.332;2023-07-08T14:23:36;29.95;42.63
69206;SHT30;56319;48.920;2.332;2023-07-08T14:26:09;29.92;42.65
69206;SHT30;56319;48.920;2.332;2023-07-08T14:28:34;29.93;42.57
69206;SHT30;56319;48.920;2.332;2023-07-08T14:31:00;29.96;42.59
69206;SHT30;56319;48.920;2.332;2023-07-08T14:33:25;29.93;42.58
69206;SHT30;56319;48.920;2.332;2023-07-08T14:35:51;29.95;42.50
69206;SHT30;56319;48.920;2.332;2023-07-08T14:38:16;30.02;42.52
69206;SHT30;56319;48.920;2.332;2023-07-08T14:40:42;30.02;42.47
69206;SHT30;56319;48.920;2.332;2023-07-08T14:43:15;30.03;42.37
69206;SHT30;56319;48.920;2.332;2023-07-08T14:45:46;30.07;42.34
69206;SHT30;56319;48.920;2.332;2023-07-08T14:48:13;30.09;42.34
69206;SHT30;56319;48.920;2.332;2023-07-08T14:50:39;30.09;42.26
69206;SHT30;56319;48.920;2.332;2023-07-08T14:53:05;30.09;42.21
69206;SHT30;56319;48.920;2.332;2023-07-08T14:55:32;30.09;42.16
69206;SHT30;56319;48.920;2.332;2023-07-08T14:57:58;30.12;42.08
69206;SHT30;56319;48.920;2.332;2023-07-08T15:00:24;30.14;42.05
69206;SHT30;56319;48.920;2.332;2023-07-08T15:02:51;30.17;42.01
69206;SHT30;56319;48.920;2.332;2023-07-08T15:05:22;30.23;41.97
69206;SHT30;56319;48.920;2.332;2023-07-08T15:07:50;30.28;41.89
69206;SHT30;56319;48.920;2.332;2023-07-08T15:10:16;30.28;41.86
69206;SHT30;56319;48.920;2.332;2023-07-08T15:12:42;30.35;41.81
69206;SHT30;56319;48.920;2.332;2023-07-08T15:15:15;30.35;41.75
69206;SHT30;56319;48.920;2.332;2023-07-08T15:17:41;30.38;41.65
69206;SHT30;56319;48.920;2.332;2023-07-08T15:20:10;30.37;41.64
69206;SHT30;56319;48.920;2.332;2023-07-08T15:22:38;30.38;41.53
69206;SHT30;56319;48.920;2.332;2023-07-08T15:25:06;30.40;41.55
69206;SHT30;56319;48.920;2.332;2023-07-08T15:27:31;30.41;41.48
69206;SHT30;56319;48.920;2.332;2023-07-08T15:29:57;30.42;41.49
69206;SHT30;56319;48.920;2.332;2023-07-08T15:32:22;30.42;41.38
69206;SHT30;56319;48.920;2.332;2023-07-08T15:34:48;30.41;41.39
69206;SHT30;56319;48.920;2.332;2023-07-08T15:37:13;30.41;41.40
69206;SHT30;56319;48.920;2.332;2023-07-08T15:39:39;30.40;41.34
69206;SHT30;56319;48.920;2.332;2023-07-08T15:42:10;30.40;41.35
69206;SHT30;56319;48.920;2.332;2023-07-08T15:44:36;30.40;41.35
69206;SHT30;56319;48.920;2.332;2023-07-08T15:47:01;30.37;41.29
69206;SHT30;56319;48.920;2.332;2023-07-08T15:49:27;30.37;41.29
69206;SHT30;56319;48.920;2.332;2023-07-08T15:51:56;30.35;41.26
69206;SHT30;56319;48.920;2.332;2023-07-08T15:54:21;30.31;41.27
69206;SHT30;56319;48.920;2.332;2023-07-08T15:56:50;30.31;41.27
69206;SHT30;56319;48.920;2.332;2023-07-08T15:59:19;30.27;41.25